createdAt,value
2018-09-29T00:01:58.793Z,62.34
2018-09-29T00:07:02.122Z,62.07
2018-09-29T00:12:05.417Z,61.95
2018-09-29T00:17:08.844Z,61.92
2018-09-29T00:22:12.185Z,61.83
2018-09-29T00:27:15.479Z,62.17
2018-09-29T00:32:18.757Z,62.57
2018-09-29T00:37:22.169Z,63.27
2018-09-29T00:42:25.502Z,63.05
2018-09-29T00:47:28.810Z,62.87
2018-09-29T00:52:32.257Z,63.89
2018-09-29T00:57:35.589Z,63.83
2018-09-29T01:02:38.966Z,63.12
2018-09-29T01:07:42.348Z,63.21
2018-09-29T01:12:45.674Z,63.18
2018-09-29T01:17:49.040Z,62.84
2018-09-29T01:22:52.304Z,62.69
2018-09-29T01:27:55.780Z,62.64
2018-09-29T01:32:59.076Z,62.73
2018-09-29T01:38:02.504Z,62.84
2018-09-29T01:43:05.916Z,62.90
2018-09-29T01:48:09.263Z,62.89
2018-09-29T01:53:12.563Z,63.31
2018-09-29T01:58:15.893Z,62.75
2018-09-29T02:03:19.325Z,63.08
2018-09-29T02:08:22.715Z,63.55
2018-09-29T02:13:26.102Z,63.16
2018-09-29T02:18:29.755Z,63.29
2018-09-29T02:23:33.162Z,63.58
2018-09-29T02:28:36.535Z,63.45
2018-09-29T02:33:39.860Z,63.28
2018-09-29T02:38:43.165Z,63.40
2018-09-29T02:43:46.476Z,63.58
2018-09-29T02:48:49.889Z,63.48
2018-09-29T02:53:53.220Z,63.29
2018-09-29T02:58:56.557Z,63.66
2018-09-29T03:03:59.884Z,63.52
2018-09-29T03:09:03.712Z,63.92
2018-09-29T03:14:07.010Z,64.12
2018-09-29T03:19:10.328Z,64.03
2018-09-29T03:24:13.633Z,64.14
2018-09-29T03:29:16.966Z,64.11
2018-09-29T03:34:20.317Z,64.53
2018-09-29T03:39:23.664Z,64.56
2018-09-29T03:44:27.052Z,64.42
2018-09-29T03:49:30.351Z,64.55
2018-09-29T03:54:33.669Z,64.54
2018-09-29T03:59:37.040Z,64.42
2018-09-29T04:04:40.380Z,64.65
2018-09-29T04:09:43.719Z,64.47
2018-09-29T04:14:47.174Z,64.70
2018-09-29T04:19:50.540Z,65.19
2018-09-29T04:24:53.828Z,65.02
2018-09-29T04:29:57.135Z,65.58
2018-09-29T04:35:00.461Z,64.75
2018-09-29T04:40:03.950Z,64.80
2018-09-29T04:45:07.282Z,64.59
2018-09-29T04:50:10.640Z,64.73
2018-09-29T04:55:13.941Z,64.37
2018-09-29T05:00:17.496Z,64.82
2018-09-29T05:05:20.817Z,64.79
2018-09-29T05:10:24.157Z,64.69
2018-09-29T05:15:27.520Z,64.70
2018-09-29T05:20:30.880Z,64.73
2018-09-29T05:25:34.201Z,64.79
2018-09-29T05:30:37.608Z,64.60
2018-09-29T05:35:40.944Z,64.68
2018-09-29T05:40:44.416Z,64.40
2018-09-29T05:45:48.622Z,64.66
2018-09-29T05:50:52.033Z,64.88
2018-09-29T05:55:55.345Z,65.41
2018-09-29T06:00:58.655Z,66.03
2018-09-29T06:06:02.140Z,66.33
2018-09-29T06:11:05.526Z,66.03
2018-09-29T06:16:09.652Z,65.90
2018-09-29T06:21:12.977Z,65.84
2018-09-29T06:26:16.301Z,66.07
2018-09-29T06:31:19.668Z,65.85
2018-09-29T06:36:23.038Z,66.02
2018-09-29T06:41:26.398Z,66.73
2018-09-29T06:46:29.741Z,67.06
2018-09-29T06:51:33.298Z,67.26
2018-09-29T06:56:36.604Z,67.22
2018-09-29T07:01:39.921Z,67.48
2018-09-29T07:06:43.309Z,67.94
2018-09-29T07:11:46.628Z,68.26
2018-09-29T07:16:49.960Z,68.09
2018-09-29T07:21:53.459Z,67.96
2018-09-29T07:26:56.707Z,68.46
2018-09-29T07:32:00.029Z,68.30
2018-09-29T07:37:03.509Z,67.61
2018-09-29T07:42:07.141Z,67.58
2018-09-29T07:47:10.485Z,67.66
2018-09-29T07:52:13.800Z,67.38
2018-09-29T07:57:17.139Z,67.08
2018-09-29T08:02:20.473Z,67.05
2018-09-29T08:07:23.801Z,67.24
2018-09-29T08:12:27.191Z,66.89
2018-09-29T08:17:30.533Z,66.38
2018-09-29T08:22:33.841Z,66.22
2018-09-29T08:27:37.151Z,66.30
2018-09-29T08:32:40.473Z,65.70
2018-09-29T08:37:43.825Z,65.29
2018-09-29T08:42:47.124Z,64.92
2018-09-29T08:47:50.432Z,65.39
2018-09-29T08:52:53.736Z,64.36
2018-09-29T08:57:57.273Z,64.12
2018-09-29T09:03:00.624Z,64.04
2018-09-29T09:08:04.181Z,63.93
2018-09-29T09:13:07.463Z,63.03
2018-09-29T09:18:10.805Z,62.19
2018-09-29T09:23:14.128Z,62.47
2018-09-29T09:28:17.436Z,62.86
2018-09-29T09:33:20.776Z,62.51
2018-09-29T09:38:24.054Z,62.40
2018-09-29T09:43:27.371Z,62.24
2018-09-29T09:48:30.680Z,60.58
2018-09-29T09:53:34.042Z,60.20
2018-09-29T09:58:37.876Z,60.47
2018-09-29T10:03:41.193Z,60.34
2018-09-29T10:08:44.477Z,59.21
2018-09-29T10:13:48.064Z,58.51
2018-09-29T10:18:51.357Z,57.77
2018-09-29T10:23:54.665Z,56.38
2018-09-29T10:28:58.085Z,54.92
2018-09-29T10:34:01.353Z,53.29
2018-09-29T10:39:07.928Z,54.28
2018-09-29T10:44:11.928Z,55.53
2018-09-29T10:49:15.180Z,53.66
2018-09-29T10:54:18.499Z,51.34
2018-09-29T10:59:21.794Z,50.33
2018-09-29T11:04:25.287Z,49.08
2018-09-29T11:09:28.572Z,46.32
2018-09-29T11:14:31.957Z,45.43
2018-09-29T11:19:35.198Z,30.81
2018-09-29T11:24:38.480Z,22.84
2018-09-29T11:29:41.890Z,20.52
2018-09-29T11:34:45.178Z,19.23
2018-09-29T11:39:48.461Z,18.73
2018-09-29T11:44:51.894Z,20.62
2018-09-29T11:49:55.161Z,26.85
2018-09-29T11:54:58.443Z,33.38
2018-09-29T12:00:01.918Z,37.48
2018-09-29T12:05:05.424Z,38.58
2018-09-29T12:10:08.692Z,31.65
2018-09-29T12:15:12.053Z,20.35
2018-09-29T12:20:15.537Z,16.68
2018-09-29T12:25:18.824Z,15.56
2018-09-29T12:30:22.096Z,13.75
2018-09-29T12:35:25.372Z,13.84
2018-09-29T12:40:29.022Z,14.25
2018-09-29T12:45:32.300Z,13.25
2018-09-29T12:50:35.584Z,14.62
2018-09-29T12:55:38.873Z,21.69
2018-09-29T13:00:42.227Z,27.03
2018-09-29T13:05:45.518Z,30.59
2018-09-29T13:10:48.806Z,25.35
2018-09-29T13:15:52.548Z,29.73
2018-09-29T13:26:33.154Z,30.72
2018-09-29T13:31:36.436Z,30.78
2018-09-29T13:36:39.724Z,32.63
2018-09-29T13:41:43.024Z,29.47
2018-09-29T13:46:47.543Z,25.57
2018-09-29T13:51:50.827Z,25.57
2018-09-29T13:56:54.120Z,27.70
2018-09-29T14:07:06.988Z,30.08
2018-09-29T14:12:10.298Z,30.91
2018-09-29T14:17:13.581Z,32.99
2018-09-29T14:22:16.864Z,34.37
2018-09-29T14:27:20.157Z,35.41
2018-09-29T14:32:23.454Z,36.59
2018-09-29T14:37:26.784Z,37.79
2018-09-29T14:42:30.080Z,38.38
2018-09-29T14:47:33.382Z,38.44
2018-09-29T14:52:36.838Z,38.27
2018-09-29T14:57:40.132Z,37.79
2018-09-29T15:02:43.436Z,37.47
2018-09-29T15:07:46.747Z,38.34
2018-09-29T15:12:50.066Z,37.54
2018-09-29T15:17:53.392Z,39.27
2018-09-29T15:22:56.699Z,39.25
2018-09-29T15:28:00.054Z,38.55
2018-09-29T15:33:03.476Z,39.60
2018-09-29T15:38:06.752Z,39.70
2018-09-29T15:43:10.081Z,39.89
2018-09-29T15:48:13.401Z,39.24
2018-09-29T15:53:16.696Z,39.62
2018-09-29T15:58:20.013Z,40.20
2018-09-29T16:03:23.310Z,40.19
2018-09-29T16:08:26.614Z,40.17
2018-09-29T16:13:29.917Z,40.55
2018-09-29T16:18:33.323Z,41.14
2018-09-29T16:23:36.615Z,41.49
2018-09-29T16:28:39.896Z,41.65
2018-09-29T16:33:43.179Z,42.55
2018-09-29T16:38:46.479Z,43.44
2018-09-29T16:43:50.168Z,44.63
2018-09-29T16:48:53.495Z,45.22
2018-09-29T16:53:56.875Z,46.08
2018-09-29T16:59:00.198Z,46.49
2018-09-29T17:04:03.617Z,47.57
2018-09-29T17:09:09.429Z,48.58
2018-09-29T17:14:12.742Z,49.61
2018-09-29T17:19:16.117Z,50.24
2018-09-29T17:24:19.444Z,50.62
2018-09-29T17:29:22.764Z,50.94
2018-09-29T17:34:26.078Z,51.59
2018-09-29T17:39:29.400Z,52.01
2018-09-29T17:44:32.755Z,52.42
2018-09-29T17:49:36.160Z,53.13
2018-09-29T17:54:39.498Z,53.03
2018-09-29T17:59:42.809Z,53.75
2018-09-29T18:04:46.136Z,54.10
2018-09-29T18:09:49.469Z,54.63
2018-09-29T18:14:52.797Z,54.79
2018-09-29T18:19:56.116Z,55.19
2018-09-29T18:24:59.462Z,55.55
2018-09-29T18:30:03.254Z,56.12
2018-09-29T18:35:06.693Z,56.08
2018-09-29T18:40:10.066Z,56.55
2018-09-29T18:45:13.471Z,57.06
2018-09-29T18:50:16.849Z,56.73
2018-09-29T18:55:20.176Z,56.97
2018-09-29T19:00:23.496Z,57.07
2018-09-29T19:05:26.884Z,56.92
2018-09-29T19:10:30.951Z,56.88
2018-09-29T19:15:34.928Z,56.87
2018-09-29T19:20:39.055Z,57.09
2018-09-29T19:25:42.810Z,56.74
2018-09-29T19:30:46.535Z,56.90
2018-09-29T19:35:50.692Z,56.62
2018-09-29T20:03:33.166Z,57.43
2018-09-29T20:08:36.927Z,57.58
2018-09-29T20:13:40.297Z,57.83
2018-09-29T20:18:43.826Z,58.26
2018-09-29T20:23:47.187Z,58.34
2018-09-29T21:02:37.640Z,59.44
2018-09-29T21:07:41.045Z,59.96
2018-09-29T21:12:44.451Z,60.09
2018-09-29T21:17:47.781Z,60.09
2018-09-29T21:22:51.106Z,59.73
2018-09-29T21:27:54.573Z,59.96
2018-09-29T21:32:57.907Z,59.87
2018-09-29T21:38:01.276Z,60.08
2018-09-29T21:43:04.665Z,60.19
2018-09-29T21:48:08.021Z,60.32
2018-09-29T21:53:11.349Z,60.68
2018-09-29T21:58:14.852Z,60.71
2018-09-29T22:03:18.161Z,60.82
2018-09-29T22:08:21.467Z,60.70
2018-09-29T22:13:24.765Z,60.43
2018-09-29T22:18:28.080Z,60.60
2018-09-29T22:23:31.588Z,60.42
2018-09-29T22:28:34.924Z,60.92
2018-09-29T22:33:38.268Z,60.67
2018-09-29T22:38:41.618Z,60.26
2018-09-29T22:43:44.929Z,60.41
2018-09-29T22:48:48.331Z,60.30
2018-09-29T22:53:51.940Z,59.41
2018-09-29T22:58:55.237Z,59.53
2018-09-29T23:03:58.620Z,59.30
2018-09-29T23:09:02.509Z,58.66
2018-09-29T23:14:06.731Z,59.53
2018-09-29T23:19:11.255Z,59.16
2018-09-29T23:24:14.571Z,59.64
2018-09-29T23:29:17.864Z,59.17
2018-09-29T23:34:21.148Z,59.04
2018-09-29T23:39:24.659Z,58.85
2018-09-29T23:44:27.969Z,59.19
2018-09-29T23:49:31.441Z,59.06
2018-09-29T23:54:34.875Z,59.14
2018-09-29T23:59:38.505Z,59.56
